| time (UTC) | temp F | wind direction | speed knots | gust knots | rain 1hr in | rain 24hr in | rain mn in | humidity % | barometer mb |
| 20260505153247 | 39 | 43 | 0.9 | 8.7 | 0.00 | 0.00 | 0.00 | 56 | 1019.5 |
| 20260505152306 | 38 | 32 | 1.7 | 7.8 | 0.00 | 0.00 | 0.00 | 56 | 1019.6 |
| 20260505151232 | 38 | 37 | 1.7 | 7.8 | 0.00 | 0.00 | 0.00 | 58 | 1019.5 |
| 20260505150222 | 38 | 43 | 1.7 | 7.0 | 0.00 | 0.00 | 0.00 | 59 | 1019.6 |
| 20260505140232 | 37 | 220 | 0.0 | 3.5 | 0.00 | 0.00 | 0.00 | 66 | 1019.3 |
| 20260505130114 | 35 | 210 | 0.0 | 3.5 | 0.00 | 0.00 | 0.00 | 80 | 1018.5 |
| 20260505122918 | 33 | 218 | 0.0 | 0.0 | 0.00 | 0.00 | 0.00 | 79 | 1018.3 |
| 20260505121908 | 34 | 218 | 0.0 | 0.0 | 0.00 | 0.00 | 0.00 | 79 | 1018.2 |
| 20260505120838 | 34 | 219 | 0.0 | 0.0 | 0.00 | 0.00 | 0.00 | 78 | 1018.2 |
| 20260505115900 | 34 | 219 | 0.0 | 0.0 | 0.00 | 0.00 | 0.00 | 78 | 1018.1 |
| 20260505114844 | 34 | 219 | 0.0 | 0.0 | 0.00 | 0.00 | 0.00 | 77 | 1018.1 |
| 20260505113850 | 34 | 219 | 0.0 | 0.0 | 0.00 | 0.00 | 0.00 | 77 | 1018.0 |
| 20260505112817 | 34 | 219 | 0.0 | 2.6 | 0.00 | 0.00 | 0.00 | 75 | 1018.1 |
| 20260505111748 | 34 | 219 | 0.9 | 5.2 | 0.00 | 0.00 | 0.00 | 74 | 1018.0 |
| 20260505110807 | 34 | 219 | 0.9 | 5.2 | 0.00 | 0.00 | 0.00 | 74 | 1017.9 |
| 20260505100744 | 35 | 220 | 0.9 | 7.0 | 0.00 | 0.00 | 0.00 | 65 | 1017.9 |
| 20260505095723 | 35 | 221 | 0.9 | 7.0 | 0.00 | 0.00 | 0.00 | 65 | 1017.7 |
| 20260505091357 | 33 | 239 | 0.0 | 1.7 | 0.00 | 0.00 | 0.00 | 77 | 1017.7 |
| 20260505090416 | 33 | 239 | 0.0 | 1.7 | 0.00 | 0.00 | 0.00 | 76 | 1017.8 |
| 20260505084309 | 33 | 239 | 0.0 | 0.0 | 0.00 | 0.00 | 0.00 | 76 | 1018.0 |
| 20260505083328 | 33 | 239 | 0.0 | 0.0 | 0.00 | 0.00 | 0.00 | 76 | 1018.0 |
| 20260505082323 | 32 | 239 | 0.0 | 0.0 | 0.00 | 0.00 | 0.00 | 76 | 1018.1 |
| 20260505081336 | 32 | 239 | 0.0 | 0.0 | 0.00 | 0.00 | 0.00 | 76 | 1017.8 |
| 20260505075217 | 32 | 239 | 0.0 | 0.0 | 0.00 | 0.00 | 0.00 | 76 | 1017.8 |
| 20260505074228 | 32 | 239 | 0.0 | 0.0 | 0.00 | 0.00 | 0.00 | 75 | 1017.8 |
| 20260505073207 | 32 | 239 | 0.0 | 0.0 | 0.00 | 0.00 | 0.00 | 74 | 1017.8 |
| 20260505071108 | 33 | 239 | 0.0 | 1.7 | 0.00 | 0.00 | 0.00 | 73 | 1017.8 |
| 20260505070132 | 33 | 239 | 0.0 | 0.9 | 0.00 | 0.00 | 0.00 | 72 | 1017.8 |
| 20260505065136 | 33 | 239 | 0.0 | 0.0 | 0.00 | 0.00 | 0.00 | 72 | 1017.8 |
| 20260505064118 | 33 | 239 | 0.0 | 2.6 | 0.00 | 0.00 | 0.00 | 71 | 1017.5 |
| 20260505061932 | 33 | 239 | 0.0 | 0.0 | 0.00 | 0.00 | 0.00 | 71 | 1017.3 |
| 20260505060907 | 32 | 239 | 0.0 | 0.0 | 0.00 | 0.00 | 0.00 | 72 | 1017.3 |
| 20260505054801 | 32 | 239 | 0.0 | 0.0 | 0.00 | 0.00 | 0.00 | 69 | 1017.1 |
| 20260505053801 | 33 | 239 | 0.0 | 0.0 | 0.00 | 0.00 | 0.00 | 68 | 1017.0 |
| 20260505052818 | 33 | 239 | 0.0 | 0.0 | 0.00 | 0.00 | 0.00 | 66 | 1016.9 |
| 20260505051826 | 34 | 240 | 0.0 | 0.0 | 0.00 | 0.00 | 0.00 | 65 | 1016.8 |
| 20260505050850 | 34 | 240 | 0.0 | 0.0 | 0.00 | 0.00 | 0.00 | 67 | 1016.8 |
| 20260505041619 | 38 | 240 | 0.0 | 0.0 | 0.00 | 0.00 | 0.00 | 59 | 1015.9 |
| 20260505040624 | 38 | 240 | 0.0 | 0.0 | 0.00 | 0.00 | 0.00 | 58 | 1015.7 |
| 20260505034526 | 40 | 240 | 0.0 | 0.0 | 0.00 | 0.00 | 0.00 | 53 | 1015.4 |
| 20260505033516 | 41 | 240 | 0.0 | 0.0 | 0.00 | 0.00 | 0.00 | 50 | 1015.2 |
| 20260505032525 | 42 | 240 | 0.0 | 0.0 | 0.00 | 0.00 | 0.00 | 50 | 1015.1 |
| 20260505031454 | 43 | 222 | 0.0 | 0.0 | 0.00 | 0.00 | 0.00 | 47 | 1014.9 |
| 20260505024217 | 46 | 26 | 0.0 | 4.3 | 0.00 | 0.00 | 0.00 | 42 | 1014.4 |
| 20260505022058 | 46 | 16 | 0.0 | 3.5 | 0.00 | 0.00 | 0.00 | 42 | 1014.1 |
| 20260505015927 | 47 | 0 | 0.9 | 3.5 | 0.00 | 0.00 | 0.00 | 41 | 1013.9 |
| 20260505014949 | 48 | 354 | 0.0 | 3.5 | 0.00 | 0.00 | 0.00 | 41 | 1013.9 |
| 20260505013923 | 48 | 353 | 0.9 | 7.8 | 0.00 | 0.00 | 0.00 | 41 | 1013.8 |
| 20260505012904 | 48 | 355 | 0.9 | 7.8 | 0.00 | 0.00 | 0.00 | 42 | 1013.7 |
| 20260505011917 | 48 | 353 | 0.9 | 8.7 | 0.00 | 0.00 | 0.00 | 42 | 1013.8 |
| 20260505010843 | 48 | 353 | 1.7 | 8.7 | 0.00 | 0.00 | 0.00 | 43 | 1013.8 |
| 20260505005901 | 48 | 355 | 2.6 | 7.0 | 0.00 | 0.00 | 0.00 | 42 | 1013.7 |
| 20260505004829 | 48 | 347 | 0.9 | 4.3 | 0.00 | 0.00 | 0.00 | 43 | 1013.6 |
| 20260505003824 | 49 | 345 | 1.7 | 7.0 | 0.00 | 0.00 | 0.00 | 43 | 1013.6 |
| 20260505002812 | 49 | 353 | 1.7 | 8.7 | 0.00 | 0.00 | 0.00 | 43 | 1013.5 |
| 20260505001743 | 49 | 328 | 2.6 | 10.4 | 0.00 | 0.00 | 0.00 | 43 | 1013.4 |
| 20260505000721 | 49 | 353 | 1.7 | 14.8 | 0.00 | 0.00 | 0.00 | 43 | 1013.1 |
| 20260504235730 | 49 | 351 | 1.7 | 14.8 | 0.00 | 0.00 | 0.00 | 43 | 1012.9 |
| 20260504233542 | 50 | 348 | 1.7 | 7.8 | 0.00 | 0.00 | 0.00 | 45 | 1012.7 |
| 20260504231410 | 50 | 349 | 1.7 | 12.2 | 0.00 | 0.00 | 0.00 | 44 | 1012.4 |
| 20260504230356 | 50 | 345 | 2.6 | 12.2 | 0.00 | 0.00 | 0.00 | 45 | 1012.4 |
| 20260504225411 | 51 | 343 | 2.6 | 8.7 | 0.00 | 0.00 | 0.00 | 45 | 1012.3 |
| 20260504224430 | 51 | 347 | 0.9 | 5.2 | 0.00 | 0.00 | 0.00 | 44 | 1012.1 |
| 20260504223403 | 51 | 344 | 1.7 | 8.7 | 0.00 | 0.00 | 0.00 | 45 | 1012.0 |
| 20260504222335 | 51 | 345 | 1.7 | 11.3 | 0.00 | 0.00 | 0.00 | 44 | 1012.0 |
| 20260504221354 | 51 | 343 | 2.6 | 11.3 | 0.00 | 0.00 | 0.00 | 44 | 1011.9 |
| 20260504220408 | 51 | 342 | 2.6 | 8.7 | 0.00 | 0.00 | 0.00 | 47 | 1011.8 |
| 20260504214305 | 51 | 342 | 1.7 | 13.9 | 0.00 | 0.00 | 0.00 | 49 | 1011.9 |
| 20260504213234 | 51 | 339 | 3.5 | 9.6 | 0.00 | 0.00 | 0.00 | 47 | 1012.0 |
| 20260504212257 | 52 | 340 | 2.6 | 10.4 | 0.00 | 0.00 | 0.00 | 48 | 1012.0 |
| 20260504210148 | 51 | 340 | 2.6 | 8.7 | 0.00 | 0.00 | 0.00 | 48 | 1012.2 |
| 20260504205203 | 51 | 338 | 2.6 | 11.3 | 0.00 | 0.00 | 0.00 | 48 | 1012.1 |
| 20260504204140 | 50 | 340 | 2.6 | 11.3 | 0.00 | 0.00 | 0.00 | 48 | 1012.1 |
| 20260504203203 | 51 | 340 | 1.7 | 10.4 | 0.00 | 0.00 | 0.00 | 48 | 1012.1 |
| 20260504202202 | 51 | 340 | 2.6 | 10.4 | 0.00 | 0.00 | 0.00 | 46 | 1012.2 |
| 20260504201214 | 52 | 339 | 2.6 | 10.4 | 0.00 | 0.00 | 0.00 | 45 | 1012.0 |
| 20260504200226 | 51 | 341 | 2.6 | 11.3 | 0.00 | 0.00 | 0.00 | 46 | 1012.0 |
| 20260504195202 | 51 | 338 | 2.6 | 11.3 | 0.00 | 0.00 | 0.00 | 46 | 1011.9 |
| 20260504194219 | 50 | 343 | 2.6 | 11.3 | 0.00 | 0.00 | 0.00 | 46 | 1011.9 |
| 20260504193240 | 50 | 344 | 1.7 | 11.3 | 0.00 | 0.00 | 0.00 | 48 | 1012.0 |
| 20260504192243 | 50 | 342 | 1.7 | 11.3 | 0.00 | 0.00 | 0.00 | 49 | 1012.1 |
| 20260504191302 | 50 | 343 | 1.7 | 7.8 | 0.00 | 0.00 | 0.00 | 47 | 1012.1 |
| 20260504190259 | 50 | 343 | 1.7 | 7.8 | 0.00 | 0.00 | 0.00 | 51 | 1012.0 |
| 20260504185317 | 50 | 342 | 0.9 | 7.0 | 0.00 | 0.00 | 0.00 | 52 | 1012.1 |
| 20260504184301 | 50 | 340 | 1.7 | 6.1 | 0.00 | 0.00 | 0.00 | 53 | 1012.2 |
| 20260504183239 | 50 | 344 | 1.7 | 11.3 | 0.00 | 0.00 | 0.00 | 52 | 1012.2 |
| 20260504182227 | 49 | 343 | 1.7 | 11.3 | 0.00 | 0.00 | 0.00 | 51 | 1012.4 |
| 20260504181154 | 49 | 344 | 1.7 | 12.2 | 0.00 | 0.00 | 0.00 | 50 | 1012.2 |
| 20260504180205 | 50 | 342 | 2.6 | 12.2 | 0.00 | 0.00 | 0.00 | 53 | 1012.2 |
| 20260504175133 | 50 | 341 | 2.6 | 12.2 | 0.00 | 0.00 | 0.00 | 52 | 1012.2 |
| 20260504174105 | 50 | 339 | 2.6 | 12.2 | 0.00 | 0.00 | 0.00 | 51 | 1012.1 |
| 20260504173130 | 50 | 341 | 1.7 | 10.4 | 0.00 | 0.00 | 0.00 | 53 | 1012.0 |
| 20260504172121 | 49 | 342 | 2.6 | 8.7 | 0.00 | 0.00 | 0.00 | 52 | 1012.0 |
| 20260504171128 | 50 | 340 | 1.7 | 10.4 | 0.00 | 0.00 | 0.00 | 52 | 1012.0 |
| 20260504170140 | 50 | 338 | 2.6 | 10.4 | 0.00 | 0.00 | 0.00 | 50 | 1012.1 |